Time;durP1;ratioP1;P1;durP2;ratioP2;P2;SDS_P1;SDS_P2;PMS_P1;PMS_P2;Temp;Humidity;BMP_temperature;BMP_pressure;BME280_temperature;BME280_humidity;BME280_pressure;Samples;Min_cycle;Max_cycle;Signal;HPM_P1;HPM_P2
2023/10/28 00:01:36;;;;;;;46.67;22.20;;;;;;;10.53;100.00;96481.09;5065373;28;20090;-83
2023/10/28 00:04:23;;;;;;;44.92;22.30;;;;;;;10.40;100.00;96460.53;5062845;28;20087;-81
2023/10/28 00:07:07;;;;;;;44.92;21.98;;;;;;;10.40;100.00;96471.03;5060790;28;20039;-82
2023/10/28 00:09:51;;;;;;;47.13;20.98;;;;;;;10.31;100.00;96454.19;5066160;28;20095;-82
2023/10/28 00:12:36;;;;;;;43.83;19.70;;;;;;;10.43;100.00;96466.09;5071767;28;20133;-83
2023/10/28 00:15:20;;;;;;;40.80;20.48;;;;;;;10.42;100.00;96461.09;5061092;28;20398;-84
2023/10/28 00:18:04;;;;;;;40.08;21.10;;;;;;;10.32;100.00;96440.84;5061928;28;20044;-83
2023/10/28 00:20:48;;;;;;;43.05;21.35;;;;;;;10.22;100.00;96449.47;5068712;28;20105;-83
2023/10/28 00:23:33;;;;;;;36.17;19.75;;;;;;;10.27;100.00;96449.47;5066708;28;20068;-83
2023/10/28 00:26:17;;;;;;;41.35;19.40;;;;;;;10.35;100.00;96455.28;5057408;28;20044;-82
2023/10/28 00:29:01;;;;;;;42.60;20.63;;;;;;;10.35;100.00;96450.81;5066081;28;20052;-83
2023/10/28 00:31:45;;;;;;;40.28;18.63;;;;;;;10.40;100.00;96463.97;5062989;28;20072;-83
2023/10/28 00:34:32;;;;;;;43.85;19.27;;;;;;;10.38;100.00;96444.28;5056484;28;20547;-83
2023/10/28 00:37:17;;;;;;;44.88;20.90;;;;;;;10.35;100.00;96450.81;5063245;28;20131;-83
2023/10/28 00:40:05;;;;;;;43.40;21.52;;;;;;;10.42;100.00;96440.13;5062198;28;20103;-83
2023/10/28 00:42:50;;;;;;;46.83;23.25;;;;;;;10.39;100.00;96441.38;5071796;28;20039;-82
2023/10/28 00:45:33;;;;;;;46.42;23.05;;;;;;;10.46;100.00;96440.41;5059394;28;20423;-83
2023/10/28 00:48:18;;;;;;;44.33;22.33;;;;;;;10.48;100.00;96440.94;5063483;28;20036;-83
2023/10/28 00:51:02;;;;;;;47.78;24.10;;;;;;;10.44;100.00;96438.03;5063067;28;20048;-83
2023/10/28 00:53:47;;;;;;;48.95;22.73;;;;;;;10.52;100.00;96431.50;5067351;28;20044;-83
2023/10/28 00:56:31;;;;;;;51.13;24.55;;;;;;;10.45;100.00;96418.63;5066641;28;20460;-83
2023/10/28 00:59:16;;;;;;;54.05;26.13;;;;;;;10.45;100.00;96413.38;5073081;28;20042;-83
2023/10/28 01:02:00;;;;;;;53.03;25.08;;;;;;;10.46;100.00;96408.94;5065288;28;20048;-85
2023/10/28 01:04:45;;;;;;;55.45;26.85;;;;;;;10.27;100.00;96412.00;5061349;28;20048;-84
2023/10/28 01:07:31;;;;;;;55.78;26.67;;;;;;;10.33;100.00;96420.66;5064545;28;20063;-81
2023/10/28 01:10:29;;;;;;;54.22;26.83;;;;;;;10.29;100.00;96418.53;5057537;28;20541;-83
2023/10/28 01:13:14;;;;;;;54.53;27.23;;;;;;;10.22;100.00;96409.34;5062251;28;20052;-82
2023/10/28 01:15:59;;;;;;;54.80;26.67;;;;;;;10.27;100.00;96420.63;5061281;28;20039;-82
2023/10/28 01:18:44;;;;;;;55.08;27.13;;;;;;;10.39;100.00;96411.75;5066678;28;20051;-82
2023/10/28 01:21:28;;;;;;;60.22;27.48;;;;;;;10.30;100.00;96406.22;5063662;28;20097;-82
2023/10/28 01:24:12;;;;;;;53.75;25.08;;;;;;;10.32;100.00;96414.63;5067518;28;20076;-83
2023/10/28 01:26:55;;;;;;;49.97;23.77;;;;;;;10.22;100.00;96409.34;5062364;28;20406;-82
2023/10/28 01:29:39;;;;;;;47.85;23.40;;;;;;;10.26;100.00;96402.56;5065266;28;20051;-80
2023/10/28 01:32:23;;;;;;;49.58;22.50;;;;;;;10.27;100.00;96396.25;5069115;28;20055;-83
2023/10/28 01:35:09;;;;;;;47.92;22.38;;;;;;;10.32;100.00;96398.91;5064772;28;20127;-82
2023/10/28 01:37:53;;;;;;;47.25;21.50;;;;;;;10.27;100.00;96396.25;5067022;28;20056;-83
2023/10/28 01:40:37;;;;;;;39.20;20.67;;;;;;;10.27;100.00;96389.16;5063516;28;20243;-83
2023/10/28 01:43:21;;;;;;;42.20;20.55;;;;;;;10.24;100.00;96396.78;5058734;28;20044;-84
2023/10/28 01:46:05;;;;;;;38.20;17.98;;;;;;;10.18;100.00;96390.72;5056426;28;20095;-84
2023/10/28 01:48:49;;;;;;;39.50;18.52;;;;;;;10.17;100.00;96391.78;5061971;28;20048;-83
2023/10/28 01:51:33;;;;;;;35.50;17.75;;;;;;;10.15;100.00;96396.50;5061912;28;20047;-83
2023/10/28 01:54:17;;;;;;;35.22;18.13;;;;;;;10.08;100.00;96380.19;5062456;28;20042;-82
2023/10/28 01:57:06;;;;;;;38.47;17.63;;;;;;;10.17;100.00;96394.41;5060685;28;20122;-81
2023/10/28 01:59:51;;;;;;;39.80;19.52;;;;;;;10.10;100.00;96386.78;5062000;28;20040;-83
2023/10/28 02:02:35;;;;;;;44.20;21.13;;;;;;;10.05;100.00;96394.63;5056904;28;20060;-84
2023/10/28 02:05:20;;;;;;;41.53;20.92;;;;;;;10.05;100.00;96385.94;5062826;28;20040;-82
2023/10/28 02:08:04;;;;;;;51.58;21.60;;;;;;;9.99;100.00;96383.31;5058207;28;20129;-83
2023/10/28 02:10:48;;;;;;;41.67;21.30;;;;;;;10.02;100.00;96389.09;5065710;28;20055;-83
2023/10/28 02:13:32;;;;;;;47.00;21.70;;;;;;;9.96;100.00;96375.19;5064511;28;20040;-83
2023/10/28 02:16:16;;;;;;;39.50;20.50;;;;;;;10.05;100.00;96378.09;5059366;28;20170;-84
2023/10/28 02:19:01;;;;;;;48.53;19.35;;;;;;;9.96;100.00;96378.59;5058725;28;20040;-84
2023/10/28 02:21:45;;;;;;;33.50;17.38;;;;;;;9.88;100.00;96363.34;5054449;28;20052;-82
2023/10/28 02:24:29;;;;;;;33.70;18.80;;;;;;;9.96;100.00;96372.56;5061438;28;20552;-82
2023/10/28 02:27:13;;;;;;;34.55;17.30;;;;;;;9.76;100.00;96365.41;5064306;28;20532;-82
2023/10/28 02:29:57;;;;;;;47.42;18.00;;;;;;;9.77;100.00;96366.97;5060489;28;20433;-82
2023/10/28 02:32:41;;;;;;;49.30;17.02;;;;;;;9.79;100.00;96373.53;5074966;28;20080;-84
2023/10/28 02:35:26;;;;;;;36.08;17.35;;;;;;;9.74;100.00;96377.97;5068931;28;20525;-83
2023/10/28 02:38:10;;;;;;;34.67;16.83;;;;;;;9.77;100.00;96373.00;5063476;28;20040;-84
2023/10/28 02:40:54;;;;;;;30.30;14.32;;;;;;;9.75;100.00;96359.38;5070264;28;20051;-83
2023/10/28 02:43:39;;;;;;;41.85;14.65;;;;;;;9.74;100.00;96368.28;5058534;28;20048;-84
2023/10/28 02:46:24;;;;;;;27.77;14.93;;;;;;;9.72;100.00;96360.66;5061757;28;20063;-84
2023/10/28 02:49:09;;;;;;;36.25;13.50;;;;;;;9.71;100.00;96358.31;5057098;28;20087;-83
2023/10/28 02:51:53;;;;;;;52.90;12.93;;;;;;;9.56;100.00;96349.31;5050139;28;20052;-83
2023/10/28 02:54:37;;;;;;;44.97;12.77;;;;;;;9.56;100.00;96356.41;5059577;28;20094;-84
2023/10/28 02:57:22;;;;;;;22.30;10.82;;;;;;;9.55;100.00;96360.84;5066921;28;20035;-83
2023/10/28 03:00:08;;;;;;;24.70;11.52;;;;;;;9.63;100.00;96361.41;5062766;28;20071;-83
2023/10/28 03:02:55;;;;;;;26.75;11.15;;;;;;;9.50;100.00;96347.72;5070632;28;20048;-84
2023/10/28 03:05:39;;;;;;;44.55;13.43;;;;;;;9.47;100.00;96350.88;5060938;28;20119;-82
2023/10/28 03:08:23;;;;;;;24.50;12.02;;;;;;;9.40;100.00;96335.38;5066798;28;20067;-84
2023/10/28 03:11:07;;;;;;;24.75;12.38;;;;;;;9.52;100.00;96345.66;5074288;28;20536;-84
2023/10/28 03:13:51;;;;;;;22.10;11.38;;;;;;;9.52;100.00;96332.56;5069208;28;20398;-82
2023/10/28 03:16:35;;;;;;;29.35;12.98;;;;;;;9.43;100.00;96329.63;5063903;28;20124;-85
2023/10/28 03:19:19;;;;;;;21.67;11.82;;;;;;;9.40;100.00;96335.38;5064689;28;20039;-84
2023/10/28 03:22:03;;;;;;;23.20;12.63;;;;;;;9.53;100.00;96341.97;5065076;28;20094;-84
2023/10/28 03:24:47;;;;;;;37.28;12.93;;;;;;;9.49;100.00;96333.06;5071427;28;20547;-83
2023/10/28 03:27:32;;;;;;;32.10;12.73;;;;;;;9.52;100.00;96326.50;5063638;28;20043;-83
2023/10/28 03:30:17;;;;;;;41.25;13.90;;;;;;;9.57;100.00;96329.94;5061414;28;20451;-84
2023/10/28 03:33:01;;;;;;;36.15;13.85;;;;;;;9.62;100.00;96331.00;5065489;28;20394;-81
2023/10/28 03:35:45;;;;;;;79.97;12.40;;;;;;;9.52;100.00;96323.91;5064005;28;20046;-83
2023/10/28 03:38:29;;;;;;;23.60;11.75;;;;;;;9.48;100.00;96313.16;5063235;28;20116;-83
2023/10/28 03:41:14;;;;;;;30.42;11.52;;;;;;;9.41;100.00;96339.56;5056310;28;20125;-82
2023/10/28 03:43:58;;;;;;;29.95;12.93;;;;;;;9.43;100.00;96327.00;5064219;28;20118;-83
2023/10/28 03:46:42;;;;;;;34.80;12.52;;;;;;;9.37;100.00;96327.22;5063269;28;20051;-84
2023/10/28 03:49:27;;;;;;;45.08;11.60;;;;;;;9.39;100.00;96322.53;5068698;28;20066;-83
2023/10/28 03:52:11;;;;;;;37.38;11.95;;;;;;;9.33;100.00;96323.53;5064309;28;20052;-83
2023/10/28 03:54:55;;;;;;;69.60;13.43;;;;;;;9.41;100.00;96339.56;5058349;28;20035;-82
2023/10/28 03:57:40;;;;;;;33.53;12.75;;;;;;;9.41;100.00;96333.53;5067926;28;20114;-83
2023/10/28 04:00:25;;;;;;;42.72;12.93;;;;;;;9.39;100.00;96336.41;5059602;28;20087;-84
2023/10/28 04:03:09;;;;;;;55.28;13.60;;;;;;;9.38;100.00;96329.59;5057427;28;20047;-83
2023/10/28 04:05:55;;;;;;;41.40;11.88;;;;;;;9.40;100.00;96329.34;5062722;28;20054;-84
2023/10/28 04:08:39;;;;;;;28.65;13.55;;;;;;;9.46;100.00;96336.19;5064103;28;20122;-83
2023/10/28 04:11:23;;;;;;;99.28;15.13;;;;;;;9.37;100.00;96329.84;5051179;28;20040;-84
2023/10/28 04:14:08;;;;;;;33.38;12.77;;;;;;;9.41;100.00;96336.16;5062090;28;20047;-83
2023/10/28 04:16:52;;;;;;;30.05;13.50;;;;;;;9.38;100.00;96336.66;5061247;28;20059;-81
2023/10/28 04:19:36;;;;;;;31.38;14.18;;;;;;;9.34;100.00;96322.50;5062417;28;20047;-84
2023/10/28 04:22:19;;;;;;;43.95;13.60;;;;;;;9.36;100.00;96333.50;5070895;28;20071;-83
2023/10/28 04:25:05;;;;;;;31.15;13.80;;;;;;;9.37;100.00;96327.22;5066252;28;20051;-83
2023/10/28 04:27:50;;;;;;;30.77;13.23;;;;;;;9.40;100.00;96331.94;5062292;28;20040;-83
2023/10/28 04:30:34;;;;;;;25.83;13.25;;;;;;;9.46;100.00;96330.97;5058664;28;20097;-82
2023/10/28 04:33:18;;;;;;;25.58;13.05;;;;;;;9.46;100.00;96322.31;5061580;28;20533;-82
2023/10/28 04:36:03;;;;;;;26.95;12.50;;;;;;;9.46;100.00;96330.16;5061851;28;20043;-83
2023/10/28 04:38:47;;;;;;;31.20;14.13;;;;;;;9.41;100.00;96326.47;5063255;28;20414;-83
2023/10/28 04:41:31;;;;;;;40.22;13.45;;;;;;;9.39;100.00;96319.91;5060430;28;20048;-83
2023/10/28 04:44:15;;;;;;;24.27;12.30;;;;;;;9.42;100.00;96322.81;5062685;28;20047;-84
2023/10/28 04:47:01;;;;;;;94.53;15.20;;;;;;;9.39;100.00;96325.16;5059710;28;20098;-83
2023/10/28 04:49:45;;;;;;;88.82;14.68;;;;;;;9.35;100.00;96334.56;5055875;28;20044;-83
2023/10/28 04:52:30;;;;;;;187.45;18.88;;;;;;;9.20;100.00;96327.41;5052493;28;20063;-84
2023/10/28 04:55:15;;;;;;;134.55;15.35;;;;;;;9.25;100.00;96325.63;5063652;28;20051;-83
2023/10/28 04:57:59;;;;;;;55.22;14.45;;;;;;;9.28;100.00;96337.38;5062979;28;20051;-84
2023/10/28 05:00:45;;;;;;;41.47;14.00;;;;;;;9.26;100.00;96337.66;5063278;28;20552;-83
2023/10/28 05:03:29;;;;;;;38.60;13.43;;;;;;;9.10;100.00;96323.66;5057455;28;20105;-84
2023/10/28 05:06:13;;;;;;;30.88;14.02;;;;;;;9.19;100.00;96334.44;5068191;28;20125;-85
2023/10/28 05:08:58;;;;;;;30.70;14.75;;;;;;;9.16;100.00;96327.13;5063338;28;20054;-83
2023/10/28 05:11:42;;;;;;;28.55;14.40;;;;;;;9.18;100.00;96338.13;5063015;28;20059;-83
2023/10/28 05:14:26;;;;;;;26.58;13.77;;;;;;;9.13;100.00;96332.84;5061503;28;20091;-83
2023/10/28 05:17:10;;;;;;;46.78;14.27;;;;;;;9.06;100.00;96332.28;5071527;28;20044;-83
2023/10/28 05:19:54;;;;;;;48.40;14.40;;;;;;;9.04;100.00;96332.53;5069760;28;20047;-85
2023/10/28 05:22:41;;;;;;;67.60;13.65;;;;;;;8.83;100.00;96316.69;5068876;28;20078;-85
2023/10/28 05:25:25;;;;;;;44.75;13.13;;;;;;;8.93;100.00;96330.88;5072173;28;20051;-84
2023/10/28 05:28:10;;;;;;;41.70;14.20;;;;;;;8.88;100.00;96323.00;5070527;28;20471;-84
2023/10/28 05:30:54;;;;;;;28.67;13.48;;;;;;;8.94;100.00;96335.06;5075333;28;20099;-84
2023/10/28 05:33:39;;;;;;;24.83;11.98;;;;;;;8.86;100.00;96326.66;5073518;28;20130;-84
2023/10/28 05:36:23;;;;;;;23.98;13.55;;;;;;;8.99;100.00;96330.66;5063506;28;20038;-85
2023/10/28 05:39:07;;;;;;;37.55;13.55;;;;;;;8.93;100.00;96313.34;5063085;28;20158;-85
2023/10/28 05:41:51;;;;;;;33.90;12.82;;;;;;;8.99;100.00;96327.28;5064832;28;20505;-85
2023/10/28 05:44:35;;;;;;;45.85;13.13;;;;;;;8.91;100.00;96325.91;5054455;28;20094;-85
2023/10/28 05:47:19;;;;;;;32.20;13.30;;;;;;;8.99;100.00;96328.03;5064004;28;20097;-84
2023/10/28 05:50:07;;;;;;;35.72;11.80;;;;;;;8.95;100.00;96332.22;5059924;28;20074;-84
2023/10/28 05:52:51;;;;;;;37.70;11.73;;;;;;;8.91;100.00;96335.56;5056275;28;20112;-84
2023/10/28 05:55:35;;;;;;;91.13;14.30;;;;;;;8.91;100.00;96331.13;5059639;28;20048;-84
2023/10/28 05:58:19;;;;;;;84.07;15.43;;;;;;;8.96;100.00;96343.47;5063405;28;20040;-84
2023/10/28 06:01:03;;;;;;;89.80;15.02;;;;;;;8.93;100.00;96334.28;5064513;28;20039;-84
2023/10/28 06:03:47;;;;;;;86.78;15.85;;;;;;;8.87;100.00;96337.91;5060765;28;20040;-85
2023/10/28 06:06:31;;;;;;;25.77;11.40;;;;;;;8.95;100.00;96337.44;5069498;28;20058;-84
2023/10/28 06:09:15;;;;;;;48.00;13.70;;;;;;;8.82;100.00;96335.25;5059374;28;20043;-84
2023/10/28 06:11:59;;;;;;;26.67;11.00;;;;;;;8.79;100.00;96343.59;5066537;28;20039;-83
2023/10/28 06:14:44;;;;;;;33.33;11.77;;;;;;;8.72;100.00;96341.19;5069963;28;20094;-84
2023/10/28 06:17:28;;;;;;;24.90;10.60;;;;;;;8.71;100.00;96337.78;5069153;28;20394;-84
2023/10/28 06:20:13;;;;;;;29.00;13.02;;;;;;;8.66;100.00;96335.13;5068552;28;20059;-84
2023/10/28 06:22:56;;;;;;;43.85;12.05;;;;;;;8.72;100.00;96333.31;5064109;28;20527;-84
2023/10/28 06:25:40;;;;;;;28.38;12.70;;;;;;;8.76;100.00;96338.84;5067975;28;20120;-86
2023/10/28 06:28:24;;;;;;;25.35;12.25;;;;;;;8.84;100.00;96341.81;5082460;28;20048;-84
2023/10/28 06:31:08;;;;;;;36.50;12.25;;;;;;;8.71;100.00;96318.69;5066163;28;20048;-85
2023/10/28 06:33:52;;;;;;;55.85;12.15;;;;;;;8.56;100.00;96335.84;5066208;28;20418;-85
2023/10/28 06:36:37;;;;;;;28.17;13.23;;;;;;;8.56;100.00;96319.34;5067296;28;20048;-85
2023/10/28 06:39:21;;;;;;;26.63;11.38;;;;;;;8.67;100.00;96336.72;5068445;28;20082;-86
2023/10/28 06:42:05;;;;;;;25.08;10.07;;;;;;;8.68;100.00;96343.50;5074276;28;20052;-85
2023/10/28 06:44:49;;;;;;;21.73;11.57;;;;;;;8.71;100.00;96332.56;5070604;28;20405;-85
2023/10/28 06:47:34;;;;;;;27.38;10.95;;;;;;;8.74;100.00;96331.25;5068243;28;20094;-86
2023/10/28 06:50:19;;;;;;;24.42;12.65;;;;;;;8.70;100.00;96324.94;5074166;28;20087;-85
2023/10/28 06:53:03;;;;;;;23.05;11.38;;;;;;;8.76;100.00;96334.44;5064188;28;20044;-84
2023/10/28 06:55:48;;;;;;;24.55;11.88;;;;;;;8.80;100.00;96334.69;5071426;28;20051;-85
2023/10/28 06:58:32;;;;;;;23.48;10.93;;;;;;;8.79;100.00;96338.34;5061303;28;20577;-84
2023/10/28 07:01:16;;;;;;;24.88;11.50;;;;;;;8.79;100.00;96335.75;5069354;28;20062;-85
2023/10/28 07:04:01;;;;;;;20.75;10.73;;;;;;;8.96;100.00;96353.94;5070021;28;20035;-84
2023/10/28 07:06:45;;;;;;;24.95;11.70;;;;;;;8.88;100.00;96339.50;5064066;28;20048;-83
2023/10/28 07:09:29;;;;;;;29.48;12.25;;;;;;;8.86;100.00;96324.03;5069046;28;20449;-83
2023/10/28 07:12:14;;;;;;;27.45;11.85;;;;;;;9.06;100.00;96345.38;5068140;28;20509;-83
2023/10/28 07:14:58;;;;;;;27.13;12.05;;;;;;;9.22;100.00;96351.50;5062565;28;20043;-83
2023/10/28 07:17:43;;;;;;;26.83;12.20;;;;;;;9.22;100.00;96341.78;5063376;28;20052;-84
2023/10/28 07:20:28;;;;;;;24.55;11.77;;;;;;;9.44;100.00;96361.84;5066050;28;20044;-82
2023/10/28 07:23:12;;;;;;;25.08;12.00;;;;;;;9.39;100.00;96343.47;5058464;28;20175;-84
2023/10/28 07:26:01;;;;;;;26.77;13.32;;;;;;;9.44;100.00;96356.63;5069515;28;20048;-86
2023/10/28 07:28:46;;;;;;;25.90;12.55;;;;;;;9.59;100.00;96371.59;5062508;28;20509;-83
2023/10/28 07:31:30;;;;;;;34.42;13.05;;;;;;;9.65;100.00;96370.59;5059943;28;20161;-86
2023/10/28 07:34:14;;;;;;;28.40;12.45;;;;;;;9.42;100.00;96377.00;5061257;28;20056;-85
2023/10/28 07:37:04;;;;;;;24.73;11.88;;;;;;;9.45;100.00;96383.56;5064482;28;20106;-84
2023/10/28 07:39:49;;;;;;;48.80;13.20;;;;;;;9.38;100.00;96376.72;5065116;28;20509;-89
2023/10/28 07:42:34;;;;;;;31.23;12.68;;;;;;;9.39;100.00;96375.69;5065368;28;20047;-86
2023/10/28 07:45:18;;;;;;;21.92;12.00;;;;;;;9.43;100.00;96391.66;5064351;28;20044;-86
2023/10/28 07:48:02;;;;;;;23.52;12.43;;;;;;;9.23;100.00;96384.47;5063099;28;20093;-84
2023/10/28 07:50:48;;;;;;;22.65;10.98;;;;;;;9.05;100.00;96385.66;5066616;28;20465;-86
2023/10/28 07:53:33;;;;;;;21.30;11.38;;;;;;;9.39;100.00;96395.84;5066321;28;20159;-85
2023/10/28 07:56:18;;;;;;;27.70;12.27;;;;;;;9.40;100.00;96400.81;5057492;28;20044;-87
2023/10/28 07:59:02;;;;;;;34.25;12.93;;;;;;;9.05;100.00;96403.97;5061859;28;20137;-85
2023/10/28 08:01:47;;;;;;;21.55;10.45;;;;;;;9.09;100.00;96399.81;5061316;28;20048;-87
2023/10/28 08:04:31;;;;;;;19.70;11.07;;;;;;;9.14;100.00;96405.09;5057656;28;20040;-85
2023/10/28 08:07:15;;;;;;;21.20;11.30;;;;;;;9.12;100.00;96381.78;5061692;28;20064;-86
2023/10/28 08:10:00;;;;;;;22.45;11.23;;;;;;;9.22;100.00;96396.75;5061431;28;20074;-88
2023/10/28 08:12:44;;;;;;;18.50;10.18;;;;;;;9.24;100.00;96396.53;5065816;28;20379;-86
2023/10/28 08:15:30;;;;;;;49.45;11.30;;;;;;;9.43;100.00;96383.81;5063745;28;20203;-87
2023/10/28 08:18:15;;;;;;;27.60;11.25;;;;;;;9.60;100.00;96398.56;5057974;28;20040;-87
2023/10/28 08:21:00;;;;;;;20.00;10.07;;;;;;;9.71;100.00;96392.34;5064987;28;20070;-88
2023/10/28 08:23:44;;;;;;;19.15;9.70;;;;;;;9.72;100.00;96380.84;5064470;28;20044;-88
2023/10/28 08:26:28;;;;;;;19.27;9.70;;;;;;;9.83;100.00;96397.41;5063052;28;20158;-86
2023/10/28 08:29:12;;;;;;;17.45;9.70;;;;;;;9.86;100.00;96389.03;5060923;28;20701;-86
2023/10/28 08:31:57;;;;;;;19.35;10.88;;;;;;;9.97;100.00;96395.91;5061591;28;20456;-89
2023/10/28 08:34:43;;;;;;;23.40;9.75;;;;;;;9.98;100.00;96400.09;5057939;28;20075;-87
2023/10/28 08:37:26;;;;;;;17.63;9.30;;;;;;;9.99;100.00;96400.88;5060342;28;20093;-88
2023/10/28 08:40:11;;;;;;;23.77;10.20;;;;;;;9.88;100.00;96399.25;5059376;28;20036;-88
2023/10/28 08:42:58;;;;;;;15.93;9.38;;;;;;;9.91;100.00;96396.91;5061070;28;20067;-87
2023/10/28 08:45:42;;;;;;;17.40;9.73;;;;;;;9.81;100.00;96392.41;5059803;28;20105;-87
2023/10/28 08:48:37;;;;;;;20.83;10.02;;;;;;;9.93;100.00;96384.34;5062995;28;20155;-87
2023/10/28 08:51:21;;;;;;;19.23;10.32;;;;;;;10.09;100.00;96385.19;5060963;28;20067;-87
2023/10/28 08:54:10;;;;;;;17.92;10.43;;;;;;;10.10;100.00;96391.22;5062536;28;20083;-87
2023/10/28 08:56:59;;;;;;;17.15;9.60;;;;;;;10.12;100.00;96389.13;5064302;28;20524;-87
2023/10/28 08:59:44;;;;;;;17.23;9.90;;;;;;;10.15;100.00;96386.78;5063773;28;20101;-87
2023/10/28 09:02:29;;;;;;;20.27;10.70;;;;;;;10.04;100.00;96381.75;5057982;28;20035;-88
2023/10/28 09:05:14;;;;;;;26.55;11.23;;;;;;;10.00;100.00;96381.47;5060665;28;20047;-86
2023/10/28 09:07:59;;;;;;;23.80;11.07;;;;;;;9.94;100.00;96398.22;5063409;28;20035;-87
2023/10/28 09:10:45;;;;;;;19.27;10.40;;;;;;;10.12;100.00;96397.78;5063047;28;20048;-86
2023/10/28 09:13:30;;;;;;;17.65;10.13;;;;;;;9.99;100.00;96408.72;5061186;28;20529;-85
2023/10/28 09:16:14;;;;;;;17.75;10.18;;;;;;;9.92;100.00;96405.56;5059985;28;20048;-85
2023/10/28 09:19:03;;;;;;;19.33;11.30;;;;;;;10.02;100.00;96413.44;5063207;28;20406;-85
2023/10/28 09:21:48;;;;;;;21.83;11.63;;;;;;;10.09;100.00;96408.78;5059777;28;20564;-88
2023/10/28 09:24:32;;;;;;;18.80;10.65;;;;;;;10.18;100.00;96401.22;5056863;28;20048;-88
2023/10/28 09:27:17;;;;;;;22.08;12.48;;;;;;;10.09;100.00;96405.34;5059268;28;20071;-87
2023/10/28 09:30:09;;;;;;;21.02;11.63;;;;;;;10.12;100.00;96394.34;5059830;28;20470;-86
2023/10/28 09:32:53;;;;;;;21.30;11.60;;;;;;;10.39;100.00;96394.19;5057085;28;20040;-88
2023/10/28 09:35:41;;;;;;;20.30;11.45;;;;;;;10.52;100.00;96402.66;5052413;28;20414;-86
2023/10/28 09:38:26;;;;;;;22.13;12.32;;;;;;;10.84;100.00;96410.31;5060133;28;20043;-86
2023/10/28 09:41:11;;;;;;;21.50;12.30;;;;;;;11.12;100.00;96410.06;5066400;28;20036;-87
2023/10/28 09:43:56;;;;;;;22.20;13.13;;;;;;;10.99;100.00;96401.63;5063112;28;20040;-81
2023/10/28 09:46:45;;;;;;;22.45;13.25;;;;;;;11.10;100.00;96407.72;5060625;28;20039;-87
2023/10/28 09:49:30;;;;;;;21.60;12.63;;;;;;;10.95;100.00;96405.84;5062691;28;20091;-84
2023/10/28 09:52:18;;;;;;;22.63;13.70;;;;;;;10.92;100.00;96395.09;5060795;28;20134;-86
2023/10/28 09:55:12;;;;;;;25.45;14.70;;;;;;;10.84;100.00;96404.28;5058858;28;20559;-85
2023/10/28 09:58:35;;;;;;;23.73;13.48;;;;;;;10.95;100.00;96402.44;5059455;28;20141;-84
2023/10/28 10:01:24;;;;;;;23.05;13.27;;;;;;;10.91;100.00;96417.91;5007588;28;20060;-83
2023/10/28 10:04:21;;;;;;;22.50;13.23;;;;;;;10.98;100.00;96405.31;5058439;28;20095;-84
2023/10/28 10:07:06;;;;;;;22.77;13.55;;;;;;;10.93;100.00;96413.19;5067014;28;20047;-84
2023/10/28 10:09:52;;;;;;;25.92;14.55;;;;;;;10.78;100.00;96416.59;5069712;28;20504;-83
2023/10/28 10:12:36;;;;;;;26.85;14.18;;;;;;;10.81;100.00;96415.31;5065989;28;20098;-83
2023/10/28 10:15:22;;;;;;;25.60;15.15;;;;;;;10.98;100.00;96410.56;5057635;28;20543;-85
2023/10/28 10:18:21;;;;;;;25.40;13.98;;;;;;;11.17;100.00;96407.41;5060073;28;20043;-82
2023/10/28 10:21:12;;;;;;;24.88;13.40;;;;;;;11.62;100.00;96406.88;5063727;28;20260;-87
2023/10/28 10:24:05;;;;;;;25.27;14.70;;;;;;;11.35;100.00;96407.94;5046810;28;20048;-88
2023/10/28 10:26:58;;;;;;;20.17;11.60;;;;;;;11.35;100.00;96424.50;5064534;28;20171;-89
2023/10/28 10:29:43;;;;;;;28.73;14.80;;;;;;;11.39;100.00;96416.84;5060990;28;20039;-84
2023/10/28 10:32:27;;;;;;;25.48;15.32;;;;;;;11.45;100.00;96410.56;5067050;28;20410;-82
2023/10/28 10:35:33;;;;;;;30.55;16.23;;;;;;;11.54;100.00;96413.44;5061830;28;20402;-83
2023/10/28 10:38:29;;;;;;;27.70;16.83;;;;;;;11.49;100.00;96403.72;5065579;28;20158;-82
2023/10/28 10:41:27;;;;;;;32.03;18.40;;;;;;;11.59;100.00;96408.16;5061179;28;20067;-84
2023/10/28 10:44:34;;;;;;;46.03;24.23;;;;;;;11.63;100.00;96413.69;5065025;28;20067;-84
2023/10/28 10:47:21;;;;;;;43.80;26.20;;;;;;;11.66;100.00;96411.31;5066711;28;20086;-83
2023/10/28 10:50:06;;;;;;;50.75;29.48;;;;;;;11.68;100.00;96411.03;5063845;28;20482;-83
2023/10/28 10:52:52;;;;;;;54.80;32.55;;;;;;;11.82;100.00;96401.56;5056895;28;20552;-83
2023/10/28 10:55:37;;;;;;;54.40;31.77;;;;;;;11.96;100.00;96411.47;5063043;28;20051;-83
2023/10/28 10:58:21;;;;;;;52.63;31.58;;;;;;;11.83;100.00;96403.13;5052409;28;20484;-82
2023/10/28 11:01:05;;;;;;;53.50;31.25;;;;;;;11.89;100.00;96401.28;5068871;28;20051;-84
2023/10/28 11:03:49;;;;;;;46.33;27.98;;;;;;;11.90;100.00;96402.84;5060978;28;20052;-83
2023/10/28 11:06:36;;;;;;;41.95;23.33;;;;;;;12.05;100.00;96398.59;5065040;28;20130;-83
2023/10/28 11:09:21;;;;;;;37.20;20.25;;;;;;;12.03;100.00;96396.25;5061260;28;20132;-83
2023/10/28 11:12:05;;;;;;;32.58;20.25;;;;;;;12.09;100.00;96407.53;5064995;28;20131;-83
2023/10/28 11:14:53;;;;;;;36.22;20.25;;;;;;;12.10;100.00;96409.88;5061010;28;20043;-84
2023/10/28 11:17:39;;;;;;;35.45;21.48;;;;;;;12.09;100.00;96405.69;5067361;28;20098;-83
2023/10/28 11:20:23;;;;;;;32.80;20.67;;;;;;;12.18;100.00;96398.03;5066441;28;20131;-84
2023/10/28 11:23:07;;;;;;;32.50;19.50;;;;;;;12.16;100.00;96389.63;5067306;28;20087;-84
2023/10/28 11:25:51;;;;;;;31.15;19.33;;;;;;;12.11;100.00;96398.31;5064943;28;20560;-86
2023/10/28 11:28:38;;;;;;;30.98;19.83;;;;;;;11.93;100.00;96391.00;5063587;28;20048;-85
2023/10/28 11:31:25;;;;;;;30.77;18.33;;;;;;;11.99;100.00;96395.19;5065808;28;20047;-85
2023/10/28 11:34:09;;;;;;;31.85;19.40;;;;;;;11.86;100.00;96386.81;5063402;28;20122;-85
2023/10/28 11:36:55;;;;;;;28.30;17.95;;;;;;;11.89;100.00;96387.34;5064128;28;20606;-86
2023/10/28 11:39:40;;;;;;;29.52;19.02;;;;;;;11.94;100.00;96374.16;5064830;28;20058;-87
2023/10/28 11:42:24;;;;;;;25.42;17.00;;;;;;;12.04;100.00;96382.06;5059842;28;20107;-87
2023/10/28 11:45:09;;;;;;;25.65;16.65;;;;;;;11.98;100.00;96393.59;5064477;28;20044;-86
2023/10/28 11:47:53;;;;;;;26.95;16.13;;;;;;;12.00;100.00;96383.63;5065831;28;20918;-86
2023/10/28 11:50:39;;;;;;;24.48;16.23;;;;;;;12.12;100.00;96378.84;5060645;28;20120;-87
2023/10/28 11:53:25;;;;;;;21.73;14.43;;;;;;;12.17;100.00;96377.25;5063180;28;20054;-86
2023/10/28 11:56:09;;;;;;;21.55;14.95;;;;;;;12.39;100.00;96372.44;5070238;28;20047;-87
2023/10/28 11:58:52;;;;;;;24.23;15.18;;;;;;;12.49;100.00;96366.31;5067810;28;20689;-86
2023/10/28 12:01:37;;;;;;;20.30;14.32;;;;;;;12.50;100.00;96367.09;5063456;28;20099;-86
2023/10/28 12:04:21;;;;;;;21.98;14.65;;;;;;;12.41;100.00;96365.03;5065838;28;20091;-86
2023/10/28 12:07:05;;;;;;;20.80;15.05;;;;;;;12.53;100.00;96367.34;5063257;28;20079;-86
2023/10/28 12:09:49;;;;;;;22.65;15.52;;;;;;;12.58;100.00;96358.63;5066788;28;20031;-85
2023/10/28 12:12:33;;;;;;;22.30;15.30;;;;;;;12.59;100.00;96354.94;5060530;28;20470;-86
2023/10/28 12:15:17;;;;;;;23.08;15.23;;;;;;;12.51;100.00;96344.97;5065821;28;20094;-86
2023/10/28 12:18:01;;;;;;;21.45;15.32;;;;;;;12.59;100.00;96354.94;5060875;28;20116;-86
2023/10/28 12:20:45;;;;;;;21.30;15.13;;;;;;;12.54;100.00;96354.94;5060547;28;20043;-86
2023/10/28 12:23:30;;;;;;;25.67;17.27;;;;;;;12.63;100.00;96366.47;5059965;28;20064;-85
2023/10/28 12:26:13;;;;;;;26.77;17.48;;;;;;;12.54;100.00;96349.69;5066589;28;20452;-85
2023/10/28 12:28:57;;;;;;;35.42;21.23;;;;;;;12.64;100.00;96354.91;5063297;28;20128;-87
2023/10/28 12:31:42;;;;;;;28.40;19.27;;;;;;;12.69;100.00;96352.22;5062448;28;20094;-85
2023/10/28 12:34:26;;;;;;;31.45;20.33;;;;;;;12.82;100.00;96350.03;5061155;28;20094;-86
2023/10/28 12:37:10;;;;;;;31.98;20.45;;;;;;;12.81;100.00;96353.72;5061949;28;20082;-85